Time;durP1;ratioP1;P1;durP2;ratioP2;P2;SDS_P1;SDS_P2;PMS_P1;PMS_P2;Temp;Humidity;BMP_temperature;BMP_pressure;BME280_temperature;BME280_humidity;BME280_pressure;Samples;Min_cycle;Max_cycle;Signal;HPM_P1;HPM_P2
2022/04/11 00:00:12;;;;;;;1.50;1.30;;;5.90;91.20;;;;;;5027893;28;20846;-76
2022/04/11 00:02:39;;;;;;;1.50;1.30;;;6.00;91.20;;;;;;5024479;28;20821;-75
2022/04/11 00:05:06;;;;;;;1.67;1.57;;;6.00;91.10;;;;;;5022000;28;20463;-76
2022/04/11 00:07:33;;;;;;;1.50;1.30;;;6.00;91.20;;;;;;5023630;28;20456;-75
2022/04/11 00:10:00;;;;;;;1.50;1.30;;;5.90;91.20;;;;;;5021921;28;20463;-76
2022/04/11 00:12:29;;;;;;;1.50;1.30;;;5.90;91.20;;;;;;5040087;28;20468;-76
2022/04/11 00:14:58;;;;;;;1.50;1.30;;;5.90;91.30;;;;;;5030819;28;20495;-76
2022/04/11 00:17:26;;;;;;;1.50;1.30;;;5.90;91.30;;;;;;5026299;28;20584;-76
2022/04/11 00:19:53;;;;;;;1.50;1.30;;;5.90;91.50;;;;;;5027634;28;20467;-76
2022/04/11 00:22:20;;;;;;;1.50;1.30;;;5.90;91.80;;;;;;5032615;28;20482;-76
2022/04/11 00:24:47;;;;;;;1.50;1.30;;;5.90;91.80;;;;;;5028963;28;20467;-76
2022/04/11 00:27:13;;;;;;;1.50;1.30;;;5.90;91.80;;;;;;5026636;28;20473;-76
2022/04/11 00:29:41;;;;;;;1.50;1.37;;;5.90;91.70;;;;;;5020755;28;20459;-76
2022/04/11 00:32:09;;;;;;;1.50;1.27;;;5.90;91.60;;;;;;5025054;28;20463;-76
2022/04/11 00:34:37;;;;;;;1.50;1.30;;;5.90;91.50;;;;;;5022430;28;20963;-76
2022/04/11 00:37:05;;;;;;;1.50;1.30;;;5.90;91.50;;;;;;5024954;28;20491;-76
2022/04/11 00:39:32;;;;;;;1.50;1.30;;;5.90;91.40;;;;;;5027024;28;20494;-76
2022/04/11 00:42:07;;;;;;;1.50;1.40;;;5.90;91.30;;;;;;5043647;28;20466;-76
2022/04/11 00:44:34;;;;;;;1.50;1.40;;;5.90;91.20;;;;;;5033963;28;20468;-76
2022/04/11 00:47:01;;;;;;;1.50;1.30;;;5.90;91.30;;;;;;5029469;28;20467;-76
2022/04/11 00:49:28;;;;;;;1.50;1.30;;;5.90;91.20;;;;;;5026441;28;20484;-76
2022/04/11 00:51:57;;;;;;;1.50;1.23;;;5.90;91.30;;;;;;5028995;28;20460;-76
2022/04/11 00:54:25;;;;;;;1.50;1.30;;;5.90;91.30;;;;;;5027716;28;20463;-76
2022/04/11 00:56:53;;;;;;;1.50;1.30;;;5.90;91.30;;;;;;5028709;28;20474;-76
2022/04/11 00:59:20;;;;;;;1.50;1.40;;;5.90;91.40;;;;;;5027551;28;20514;-76
2022/04/11 01:01:48;;;;;;;1.50;1.30;;;5.90;91.30;;;;;;5028763;28;20459;-76
2022/04/11 01:04:26;;;;;;;1.50;1.30;;;5.90;91.40;;;;;;5026996;28;20473;-76
2022/04/11 01:06:56;;;;;;;1.50;1.30;;;5.90;91.30;;;;;;5032628;28;20545;-76
2022/04/11 01:09:24;;;;;;;1.50;1.30;;;5.90;91.00;;;;;;5040595;28;20482;-76
2022/04/11 01:11:51;;;;;;;1.50;1.27;;;5.90;91.00;;;;;;5040538;28;20455;-76
2022/04/11 01:14:20;;;;;;;1.50;1.30;;;5.90;91.00;;;;;;5025526;28;20470;-76
2022/04/11 01:16:50;;;;;;;1.50;1.30;;;5.90;90.90;;;;;;5037106;28;20513;-76
2022/04/11 01:19:17;;;;;;;1.50;1.30;;;5.90;90.70;;;;;;5057523;22;20491;-78
2022/04/11 01:21:45;;;;;;;1.50;1.40;;;5.90;90.40;;;;;;5050771;28;20470;-77
2022/04/11 01:24:13;;;;;;;1.50;1.20;;;5.90;90.10;;;;;;5052424;28;20512;-77
2022/04/11 01:26:39;;;;;;;1.50;1.30;;;6.00;89.90;;;;;;5051808;28;20836;-76
2022/04/11 01:29:09;;;;;;;1.50;1.30;;;5.90;89.20;;;;;;5052192;28;20454;-77
2022/04/11 01:31:36;;;;;;;1.50;1.30;;;6.00;88.90;;;;;;5030706;28;20455;-78
2022/04/11 01:34:02;;;;;;;1.50;1.20;;;5.90;88.60;;;;;;5031018;28;20769;-78
2022/04/11 01:36:29;;;;;;;1.50;1.20;;;5.90;88.90;;;;;;5031060;28;20462;-76
2022/04/11 01:38:57;;;;;;;1.50;1.30;;;6.00;88.80;;;;;;5031863;28;20483;-77
2022/04/11 01:41:24;;;;;;;1.50;1.40;;;5.90;88.60;;;;;;5029830;28;20494;-77
2022/04/11 01:43:51;;;;;;;1.50;1.30;;;5.90;88.60;;;;;;5032254;28;20489;-77
2022/04/11 01:46:18;;;;;;;1.50;1.37;;;5.90;88.80;;;;;;5031787;28;20473;-77
2022/04/11 01:48:45;;;;;;;1.50;1.30;;;5.90;88.90;;;;;;5031182;28;20807;-77
2022/04/11 01:51:12;;;;;;;1.50;1.27;;;5.90;88.90;;;;;;5030226;28;20873;-77
2022/04/11 01:53:40;;;;;;;1.50;1.37;;;5.90;88.90;;;;;;5031870;28;20463;-77
2022/04/11 01:56:08;;;;;;;1.50;1.27;;;5.90;88.90;;;;;;5029977;28;20471;-77
2022/04/11 01:58:35;;;;;;;1.50;1.20;;;5.90;88.80;;;;;;5029972;28;20485;-77
2022/04/11 02:01:02;;;;;;;1.50;1.10;;;5.90;89.00;;;;;;5028992;28;20494;-77
2022/04/11 02:03:28;;;;;;;1.50;1.27;;;5.90;89.20;;;;;;5030731;28;20482;-78
2022/04/11 02:05:56;;;;;;;1.50;1.30;;;5.90;89.20;;;;;;5029410;28;20872;-77
2022/04/11 02:08:24;;;;;;;1.47;1.20;;;5.90;89.00;;;;;;5029548;28;20475;-76
2022/04/11 02:10:51;;;;;;;1.50;1.30;;;5.90;89.20;;;;;;5028616;28;21102;-77
2022/04/11 02:13:19;;;;;;;1.50;1.20;;;5.80;89.20;;;;;;5027659;28;20455;-77
2022/04/11 02:15:46;;;;;;;1.50;1.20;;;5.80;89.30;;;;;;5030084;28;20550;-78
2022/04/11 02:18:13;;;;;;;1.50;1.37;;;5.80;89.30;;;;;;5030367;28;20494;-77
2022/04/11 02:20:39;;;;;;;1.50;1.20;;;5.80;89.50;;;;;;5029367;28;20940;-77
2022/04/11 02:23:06;;;;;;;1.50;1.30;;;5.80;89.30;;;;;;5030746;28;20470;-77
2022/04/11 02:25:37;;;;;;;1.50;1.30;;;5.80;89.40;;;;;;5030068;28;20466;-77
2022/04/11 02:28:05;;;;;;;1.50;1.30;;;5.80;89.60;;;;;;5030143;28;20506;-77
2022/04/11 02:30:33;;;;;;;1.50;1.30;;;5.80;89.80;;;;;;5029423;28;20847;-77
2022/04/11 02:33:00;;;;;;;1.50;1.30;;;5.80;90.00;;;;;;5029756;28;20485;-78
2022/04/11 02:35:26;;;;;;;1.50;1.40;;;5.80;89.80;;;;;;5029755;28;21129;-76
2022/04/11 02:37:53;;;;;;;1.50;1.30;;;5.80;89.80;;;;;;5029933;28;20463;-77
2022/04/11 02:40:20;;;;;;;1.50;1.30;;;5.80;89.80;;;;;;5029322;28;20487;-78
2022/04/11 02:42:47;;;;;;;1.50;1.30;;;5.80;89.80;;;;;;5028957;28;20490;-77
2022/04/11 02:45:16;;;;;;;1.50;1.30;;;5.80;89.90;;;;;;5030533;28;20475;-77
2022/04/11 02:47:44;;;;;;;1.50;1.30;;;5.80;89.80;;;;;;5027913;28;20533;-77
2022/04/11 02:50:12;;;;;;;1.50;1.40;;;5.80;89.80;;;;;;5029373;28;20486;-76
2022/04/11 02:52:39;;;;;;;1.50;1.30;;;5.80;89.70;;;;;;5028981;28;20465;-77
2022/04/11 02:55:07;;;;;;;1.60;1.50;;;5.80;89.60;;;;;;5030151;28;20850;-78
2022/04/11 02:57:36;;;;;;;2.03;1.93;;;5.80;89.30;;;;;;5024103;28;20471;-77
2022/04/11 03:00:04;;;;;;;1.50;1.30;;;5.80;89.30;;;;;;5029399;28;20495;-77
2022/04/11 03:02:31;;;;;;;1.50;1.30;;;5.80;89.30;;;;;;5027481;28;20474;-77
2022/04/11 03:04:59;;;;;;;1.50;1.30;;;5.80;89.20;;;;;;5027139;28;20467;-77
2022/04/11 03:07:27;;;;;;;1.50;1.30;;;5.80;89.00;;;;;;5029310;28;20459;-77
2022/04/11 03:09:54;;;;;;;1.50;1.30;;;5.80;88.80;;;;;;5029149;28;20471;-78
2022/04/11 03:12:21;;;;;;;1.50;1.40;;;5.80;88.80;;;;;;5025761;28;20467;-77
2022/04/11 03:14:48;;;;;;;1.50;1.40;;;5.80;88.60;;;;;;5026136;28;20487;-77
2022/04/11 03:17:15;;;;;;;1.50;1.30;;;5.80;88.60;;;;;;5029638;28;20894;-77
2022/04/11 03:19:42;;;;;;;1.50;1.40;;;5.80;88.50;;;;;;5029237;28;20491;-78
2022/04/11 03:22:10;;;;;;;1.50;1.30;;;5.80;88.50;;;;;;5029537;28;20957;-77
2022/04/11 03:24:37;;;;;;;1.50;1.30;;;5.80;88.30;;;;;;5029427;28;20510;-78
2022/04/11 03:27:04;;;;;;;1.50;1.33;;;5.80;88.20;;;;;;5029897;28;20471;-78
2022/04/11 03:29:31;;;;;;;1.50;1.30;;;5.80;88.40;;;;;;5029220;28;20483;-77
2022/04/11 03:31:59;;;;;;;1.50;1.37;;;5.80;88.50;;;;;;5029175;28;20914;-77
2022/04/11 03:34:26;;;;;;;1.43;1.20;;;5.80;88.20;;;;;;5028901;28;20973;-77
2022/04/11 03:36:52;;;;;;;1.50;1.30;;;5.80;88.20;;;;;;5028128;28;20914;-76
2022/04/11 03:39:20;;;;;;;1.50;1.30;;;5.80;88.20;;;;;;5028613;28;20501;-78
2022/04/11 03:41:47;;;;;;;1.47;1.23;;;5.80;88.50;;;;;;5026031;28;20455;-76
2022/04/11 03:44:14;;;;;;;1.50;1.40;;;5.80;88.40;;;;;;5029076;28;20474;-78
2022/04/11 03:46:41;;;;;;;1.50;1.30;;;5.80;88.50;;;;;;5028249;28;20466;-77
2022/04/11 03:49:15;;;;;;;1.50;1.30;;;5.70;88.80;;;;;;5075357;27;20571;-79
2022/04/11 03:51:42;;;;;;;1.50;1.30;;;5.70;89.00;;;;;;5059949;28;21104;-77
2022/04/11 03:54:09;;;;;;;1.50;1.40;;;5.70;89.70;;;;;;5065428;28;20461;-77
2022/04/11 03:56:35;;;;;;;1.50;1.30;;;5.70;89.90;;;;;;5054054;28;20466;-76
2022/04/11 03:59:03;;;;;;;1.50;1.30;;;5.60;90.40;;;;;;5049284;28;20457;-75
2022/04/11 04:01:30;;;;;;;1.50;1.30;;;5.60;90.60;;;;;;5051942;28;20490;-76
2022/04/11 04:03:57;;;;;;;1.50;1.27;;;5.60;91.00;;;;;;5061272;28;20464;-75
2022/04/11 04:06:25;;;;;;;1.43;1.30;;;5.60;90.90;;;;;;5058175;28;21028;-77
2022/04/11 04:08:51;;;;;;;1.70;1.60;;;5.60;91.30;;;;;;5050581;28;20482;-77
2022/04/11 04:11:18;;;;;;;1.50;1.20;;;5.50;91.60;;;;;;5055282;28;20486;-78
2022/04/11 04:13:45;;;;;;;1.50;1.30;;;5.50;91.80;;;;;;5057586;28;20468;-77
2022/04/11 04:16:12;;;;;;;1.50;1.37;;;5.40;92.00;;;;;;5064054;28;20825;-77
2022/04/11 04:18:38;;;;;;;1.50;1.30;;;5.40;92.30;;;;;;5048505;28;20469;-77
2022/04/11 04:21:05;;;;;;;1.50;1.30;;;5.30;92.50;;;;;;5046300;28;20478;-77
2022/04/11 04:23:33;;;;;;;1.50;1.40;;;5.30;92.80;;;;;;5054074;28;20858;-77
2022/04/11 04:26:00;;;;;;;1.50;1.30;;;5.30;93.30;;;;;;5046132;28;20458;-77
2022/04/11 04:28:27;;;;;;;1.50;1.30;;;5.20;93.30;;;;;;5061190;28;20691;-77
2022/04/11 04:30:54;;;;;;;1.50;1.30;;;5.20;93.60;;;;;;5047315;28;20482;-77
2022/04/11 04:33:20;;;;;;;1.50;1.30;;;5.20;93.80;;;;;;5048360;28;20468;-76
2022/04/11 04:35:47;;;;;;;1.50;1.40;;;5.10;94.20;;;;;;5048416;28;20462;-78
2022/04/11 04:38:14;;;;;;;1.50;1.30;;;5.10;94.30;;;;;;5053882;28;20469;-76
2022/04/11 04:40:42;;;;;;;1.50;1.20;;;5.10;94.60;;;;;;5055389;28;20490;-75
2022/04/11 04:43:09;;;;;;;1.50;1.30;;;5.10;94.50;;;;;;5058784;28;20466;-77
2022/04/11 04:45:37;;;;;;;1.50;1.40;;;5.10;94.80;;;;;;5045938;28;20467;-79
2022/04/11 04:48:05;;;;;;;2.87;2.67;;;5.00;94.90;;;;;;5052501;28;20491;-76
2022/04/11 04:50:32;;;;;;;1.50;1.30;;;5.00;95.20;;;;;;5050360;28;20885;-77
2022/04/11 04:52:59;;;;;;;1.50;1.30;;;5.00;95.20;;;;;;5049816;28;20477;-75
2022/04/11 04:55:26;;;;;;;1.53;1.43;;;4.90;95.60;;;;;;5053324;28;20473;-77
2022/04/11 04:57:54;;;;;;;1.50;1.30;;;4.90;95.40;;;;;;5053833;28;20467;-79
2022/04/11 05:00:21;;;;;;;1.50;1.30;;;4.90;95.70;;;;;;5041049;28;20484;-78
2022/04/11 05:02:48;;;;;;;1.50;1.30;;;4.90;95.50;;;;;;5040610;28;21464;-76
2022/04/11 05:05:15;;;;;;;1.50;1.30;;;4.90;95.60;;;;;;5034492;28;20474;-78
2022/04/11 05:07:42;;;;;;;1.50;1.40;;;4.80;95.40;;;;;;5044508;28;20478;-77
2022/04/11 05:10:09;;;;;;;1.50;1.30;;;4.80;95.40;;;;;;5030378;28;20497;-77
2022/04/11 05:12:41;;;;;;;1.53;1.40;;;4.80;95.10;;;;;;5041396;28;20954;-76
2022/04/11 05:15:10;;;;;;;1.50;1.40;;;4.80;95.10;;;;;;5032350;28;20469;-77
2022/04/11 05:17:37;;;;;;;1.70;1.60;;;4.80;94.90;;;;;;5033747;28;20491;-77
2022/04/11 05:20:05;;;;;;;1.50;1.40;;;4.80;95.10;;;;;;5042449;28;20479;-76
2022/04/11 05:22:32;;;;;;;1.53;1.33;;;4.80;95.20;;;;;;5035490;28;20463;-78
2022/04/11 05:24:59;;;;;;;1.60;1.47;;;4.80;95.00;;;;;;5035825;28;20444;-78
2022/04/11 05:27:26;;;;;;;1.50;1.30;;;4.80;95.00;;;;;;5035601;28;20482;-78
2022/04/11 05:29:53;;;;;;;1.50;1.30;;;4.80;95.10;;;;;;5031226;28;20491;-77
2022/04/11 05:32:21;;;;;;;1.50;1.30;;;4.80;95.20;;;;;;5033653;28;20463;-77
2022/04/11 05:34:48;;;;;;;1.60;1.40;;;4.80;95.40;;;;;;5040264;28;20462;-77
2022/04/11 05:37:14;;;;;;;1.93;1.83;;;4.90;95.40;;;;;;5040873;28;20824;-76
2022/04/11 05:39:41;;;;;;;1.50;1.30;;;4.90;95.50;;;;;;5045281;28;20882;-76
2022/04/11 05:42:08;;;;;;;1.53;1.37;;;4.90;95.60;;;;;;5042929;28;20869;-77
2022/04/11 05:44:35;;;;;;;1.50;1.40;;;5.00;95.70;;;;;;5035716;28;20480;-78
2022/04/11 05:47:03;;;;;;;1.50;1.30;;;5.00;95.50;;;;;;5041821;28;20470;-80
2022/04/11 05:49:31;;;;;;;1.50;1.30;;;5.10;95.50;;;;;;5045526;28;20502;-77
2022/04/11 05:51:57;;;;;;;1.50;1.30;;;5.30;95.30;;;;;;5040497;28;20474;-77
2022/04/11 05:54:24;;;;;;;1.50;1.27;;;5.40;94.80;;;;;;5041607;28;21069;-76
2022/04/11 05:56:52;;;;;;;1.50;1.40;;;5.60;94.00;;;;;;5035554;28;20458;-76
2022/04/11 05:59:19;;;;;;;1.50;1.37;;;5.80;93.60;;;;;;5036009;28;20494;-77
2022/04/11 06:01:46;;;;;;;1.50;1.33;;;6.00;93.50;;;;;;5046672;28;20466;-76
2022/04/11 06:04:13;;;;;;;1.50;1.33;;;6.20;92.20;;;;;;5031161;28;20470;-77
2022/04/11 06:06:41;;;;;;;1.50;1.30;;;6.40;90.90;;;;;;5039221;28;20486;-78
2022/04/11 06:09:08;;;;;;;1.50;1.30;;;6.60;91.40;;;;;;5029862;28;20489;-78
2022/04/11 06:11:34;;;;;;;1.50;1.30;;;6.80;89.70;;;;;;5034750;28;20852;-78
2022/04/11 06:14:01;;;;;;;1.50;1.20;;;7.00;88.60;;;;;;5049078;28;20466;-78
2022/04/11 06:16:28;;;;;;;1.50;1.30;;;7.10;88.10;;;;;;5047658;28;21070;-77
2022/04/11 06:18:55;;;;;;;1.50;1.20;;;7.20;87.00;;;;;;5030405;28;20463;-77
2022/04/11 06:21:22;;;;;;;1.50;1.30;;;7.20;87.80;;;;;;5031429;28;20573;-77
2022/04/11 06:23:50;;;;;;;1.50;1.10;;;7.30;87.10;;;;;;5033687;28;20462;-77
2022/04/11 06:26:16;;;;;;;1.50;1.20;;;7.60;87.00;;;;;;5043848;28;20458;-75
2022/04/11 06:28:43;;;;;;;1.50;1.20;;;7.70;86.40;;;;;;5032821;28;20490;-78
2022/04/11 06:31:10;;;;;;;1.50;1.20;;;7.80;86.30;;;;;;5029722;28;21007;-78
2022/04/11 06:33:38;;;;;;;1.50;1.10;;;8.00;86.00;;;;;;5030390;28;20536;-75
2022/04/11 06:36:05;;;;;;;1.50;1.20;;;8.20;85.60;;;;;;5030286;28;20462;-77
2022/04/11 06:38:33;;;;;;;1.50;1.10;;;8.30;84.70;;;;;;5039409;28;20466;-76
2022/04/11 06:41:01;;;;;;;1.50;1.33;;;8.30;83.90;;;;;;5038159;28;20482;-77
2022/04/11 06:43:28;;;;;;;1.70;1.60;;;8.40;83.90;;;;;;5042871;28;20475;-77
2022/04/11 06:45:54;;;;;;;1.50;1.20;;;8.40;83.70;;;;;;5042887;28;20948;-77
2022/04/11 06:48:21;;;;;;;1.50;1.20;;;8.60;84.00;;;;;;5033456;28;20551;-77
2022/04/11 06:50:50;;;;;;;1.50;1.20;;;8.80;83.80;;;;;;5038174;28;20651;-77
2022/04/11 06:53:16;;;;;;;3.33;3.13;;;8.80;83.00;;;;;;5044225;28;20466;-75
2022/04/11 06:55:47;;;;;;;1.50;1.20;;;8.90;82.80;;;;;;5038825;28;20466;-78
2022/04/11 06:58:15;;;;;;;1.50;1.10;;;8.90;83.00;;;;;;5049368;28;20458;-77
2022/04/11 07:00:42;;;;;;;1.50;1.10;;;9.10;83.20;;;;;;5041557;28;20478;-78
2022/04/11 07:03:09;;;;;;;1.43;1.10;;;9.30;83.30;;;;;;5034532;28;20463;-77
2022/04/11 07:05:36;;;;;;;1.50;1.10;;;9.50;82.30;;;;;;5029721;28;20471;-78
2022/04/11 07:08:04;;;;;;;3.93;3.33;;;9.70;82.10;;;;;;5033360;28;20849;-77
2022/04/11 07:10:31;;;;;;;1.50;1.10;;;9.90;81.90;;;;;;5040064;28;20478;-77
2022/04/11 07:12:58;;;;;;;1.50;1.20;;;10.00;80.80;;;;;;5044308;28;20534;-76
2022/04/11 07:15:26;;;;;;;1.50;1.10;;;10.10;80.80;;;;;;5037091;28;20474;-77
2022/04/11 07:17:53;;;;;;;1.50;1.10;;;10.20;80.60;;;;;;5043899;28;20805;-77
2022/04/11 07:20:20;;;;;;;1.50;1.10;;;10.30;80.30;;;;;;5045462;23;20518;-81
2022/04/11 07:22:47;;;;;;;1.50;1.10;;;10.20;80.80;;;;;;5027217;28;20463;-80
2022/04/11 07:25:13;;;;;;;1.50;1.10;;;10.30;80.60;;;;;;5021663;28;20468;-78
2022/04/11 07:27:40;;;;;;;1.50;1.10;;;10.50;80.50;;;;;;5015132;28;20827;-79
2022/04/11 07:30:08;;;;;;;1.43;1.03;;;10.60;80.10;;;;;;5012742;28;20496;-79
2022/04/11 07:32:37;;;;;;;1.47;1.00;;;10.70;80.30;;;;;;4986766;28;20831;-79
2022/04/11 07:35:05;;;;;;;1.50;1.10;;;10.80;79.50;;;;;;4966815;28;20475;-79
2022/04/11 07:37:33;;;;;;;1.50;1.10;;;10.80;79.80;;;;;;4970145;28;20465;-82
2022/04/11 07:40:01;;;;;;;1.47;1.00;;;11.00;79.60;;;;;;4972448;28;20486;-79
2022/04/11 07:42:28;;;;;;;1.50;1.20;;;11.10;79.20;;;;;;4970295;28;20462;-79
2022/04/11 07:44:54;;;;;;;1.50;1.10;;;11.30;79.00;;;;;;4975308;28;20462;-79
2022/04/11 07:47:21;;;;;;;1.50;1.00;;;11.40;78.50;;;;;;4974748;28;20469;-79
2022/04/11 07:49:49;;;;;;;1.50;1.00;;;11.70;78.00;;;;;;4974541;28;20485;-80
2022/04/11 07:52:16;;;;;;;1.50;1.00;;;11.90;77.10;;;;;;4970654;28;20942;-80
2022/04/11 07:54:44;;;;;;;1.50;1.00;;;12.00;77.00;;;;;;4974308;28;20477;-79
2022/04/11 07:57:11;;;;;;;1.50;1.10;;;12.10;76.00;;;;;;4973648;28;20458;-81
2022/04/11 07:59:37;;;;;;;1.50;1.00;;;12.10;76.60;;;;;;4969991;28;20468;-80
2022/04/11 08:02:04;;;;;;;4.33;1.73;;;12.20;75.20;;;;;;4962946;28;20509;-80
2022/04/11 08:04:32;;;;;;;1.50;1.00;;;12.20;75.90;;;;;;4964534;28;20473;-80
2022/04/11 08:07:02;;;;;;;1.50;1.07;;;12.30;75.90;;;;;;4966085;28;20465;-80
2022/04/11 08:09:29;;;;;;;1.50;1.10;;;12.50;75.30;;;;;;4964657;28;20489;-80
2022/04/11 08:11:55;;;;;;;1.50;1.00;;;12.50;75.00;;;;;;4960342;28;20494;-80
2022/04/11 08:14:22;;;;;;;1.50;1.00;;;12.50;75.10;;;;;;4963926;28;20466;-79
2022/04/11 08:16:49;;;;;;;1.50;1.00;;;12.60;74.90;;;;;;4962899;28;20481;-80
2022/04/11 08:19:16;;;;;;;1.50;1.00;;;12.90;75.20;;;;;;4966551;28;20904;-80
2022/04/11 08:21:42;;;;;;;1.47;1.00;;;13.00;74.40;;;;;;4965111;28;20905;-80
2022/04/11 08:24:10;;;;;;;1.87;1.20;;;13.10;73.20;;;;;;4967641;28;20903;-80
2022/04/11 08:26:37;;;;;;;1.50;1.00;;;13.10;73.80;;;;;;4968489;28;20466;-81
2022/04/11 08:29:04;;;;;;;1.47;1.00;;;13.20;71.90;;;;;;4971664;28;20490;-80
2022/04/11 08:31:31;;;;;;;1.50;1.00;;;13.30;72.10;;;;;;4970072;28;20489;-79
2022/04/11 08:33:58;;;;;;;1.40;0.90;;;13.30;72.10;;;;;;4968722;28;20467;-79
2022/04/11 08:36:25;;;;;;;1.50;1.00;;;13.40;72.30;;;;;;4976242;28;20462;-80
2022/04/11 08:38:52;;;;;;;1.50;1.00;;;13.50;72.40;;;;;;4972462;28;20865;-80
2022/04/11 08:41:20;;;;;;;1.47;0.93;;;13.60;71.90;;;;;;4971548;28;20489;-79
2022/04/11 08:43:47;;;;;;;1.50;1.00;;;13.70;71.30;;;;;;4969900;28;20466;-80
2022/04/11 08:46:17;;;;;;;1.50;1.00;;;13.60;69.60;;;;;;4975030;28;20474;-79
2022/04/11 08:48:44;;;;;;;1.43;0.87;;;13.70;70.60;;;;;;4977132;28;20766;-78
2022/04/11 08:51:11;;;;;;;1.47;0.90;;;13.80;70.90;;;;;;4971620;28;20494;-80
2022/04/11 08:53:38;;;;;;;1.40;0.90;;;13.80;70.90;;;;;;4975761;28;20461;-80
2022/04/11 08:56:05;;;;;;;1.47;1.00;;;13.90;69.90;;;;;;4975780;28;20465;-79
2022/04/11 08:58:33;;;;;;;1.43;0.90;;;13.80;68.80;;;;;;4977911;28;20466;-80
2022/04/11 09:01:00;;;;;;;1.50;0.90;;;13.70;69.90;;;;;;4976971;28;20481;-79
2022/04/11 09:03:27;;;;;;;1.47;0.90;;;13.70;68.80;;;;;;4977882;28;20461;-80
2022/04/11 09:06:04;;;;;;;1.47;1.00;;;13.80;69.40;;;;;;4976215;28;20492;-80
2022/04/11 09:08:41;;;;;;;1.50;1.00;;;13.90;68.30;;;;;;4970386;28;21261;-80
2022/04/11 09:11:08;;;;;;;1.47;1.00;;;14.00;67.60;;;;;;4969212;28;21233;-80
2022/04/11 09:13:51;;;;;;;1.43;1.00;;;14.00;67.90;;;;;;4964361;28;20477;-79
2022/04/11 09:16:18;;;;;;;1.40;0.90;;;13.90;68.40;;;;;;4969836;28;20463;-79
2022/04/11 09:18:49;;;;;;;1.47;1.00;;;13.80;68.00;;;;;;4970603;28;20473;-79
2022/04/11 09:21:20;;;;;;;1.50;0.90;;;14.00;68.30;;;;;;4973549;28;20489;-79
2022/04/11 09:23:47;;;;;;;1.43;1.00;;;14.20;68.30;;;;;;4968027;28;20471;-79
2022/04/11 09:26:19;;;;;;;1.50;0.93;;;14.30;66.80;;;;;;4970040;28;20495;-79
2022/04/11 09:29:00;;;;;;;1.47;0.93;;;14.40;67.50;;;;;;4973279;28;20502;-79
2022/04/11 09:31:27;;;;;;;1.43;1.00;;;14.50;68.30;;;;;;4964708;28;21001;-80
2022/04/11 09:33:54;;;;;;;1.50;0.97;;;14.50;68.30;;;;;;4973712;28;20466;-79
2022/04/11 09:36:21;;;;;;;1.50;0.90;;;14.50;67.70;;;;;;4973369;28;20466;-79
2022/04/11 09:38:58;;;;;;;1.50;1.00;;;14.70;68.70;;;;;;4973572;28;20470;-79
2022/04/11 09:41:29;;;;;;;1.47;0.97;;;14.80;68.20;;;;;;4962122;28;20904;-80
2022/04/11 09:43:56;;;;;;;1.50;1.00;;;14.90;67.30;;;;;;4973749;28;20466;-79
2022/04/11 09:46:25;;;;;;;1.43;0.90;;;15.00;66.70;;;;;;4974068;28;20462;-79
2022/04/11 09:48:54;;;;;;;1.47;0.93;;;15.00;66.80;;;;;;4974961;28;20462;-80
2022/04/11 09:51:21;;;;;;;1.50;1.10;;;15.20;67.50;;;;;;4968166;28;21041;-78
2022/04/11 09:53:48;;;;;;;1.47;1.00;;;15.30;67.00;;;;;;4972328;28;20912;-80
2022/04/11 09:56:17;;;;;;;1.40;0.90;;;15.50;66.50;;;;;;4971287;28;20470;-78
2022/04/11 09:58:43;;;;;;;1.47;0.90;;;15.50;64.60;;;;;;4973354;28;20484;-78
2022/04/11 10:01:10;;;;;;;1.50;0.90;;;15.50;64.30;;;;;;4971432;28;20490;-80
2022/04/11 10:03:41;;;;;;;1.43;0.90;;;15.50;64.80;;;;;;4970596;28;20749;-80
2022/04/11 10:06:08;;;;;;;1.47;0.97;;;15.70;64.30;;;;;;4975693;28;20477;-79
2022/04/11 10:08:36;;;;;;;1.50;0.90;;;15.80;63.20;;;;;;4979802;28;20480;-79
2022/04/11 10:11:04;;;;;;;1.47;0.93;;;16.00;62.90;;;;;;4972318;28;20502;-80
2022/04/11 10:13:32;;;;;;;1.50;1.00;;;15.80;61.90;;;;;;4972052;28;20470;-79
2022/04/11 10:16:00;;;;;;;1.43;0.90;;;15.90;63.00;;;;;;4978904;28;20466;-79
2022/04/11 10:18:28;;;;;;;1.43;0.90;;;15.90;61.50;;;;;;4973177;28;20470;-80
2022/04/11 10:21:00;;;;;;;1.50;1.10;;;15.90;60.70;;;;;;4956404;28;20508;-80
2022/04/11 10:23:31;;;;;;;1.50;0.90;;;16.10;62.00;;;;;;4970602;28;20477;-79
2022/04/11 10:26:01;;;;;;;1.47;0.90;;;16.20;61.60;;;;;;4973131;28;20466;-81
2022/04/11 10:28:28;;;;;;;1.50;1.10;;;16.00;60.80;;;;;;4968893;28;20516;-80
2022/04/11 10:31:07;;;;;;;1.43;0.90;;;16.00;61.90;;;;;;4957565;28;20501;-82
2022/04/11 10:33:45;;;;;;;1.43;0.90;;;16.10;61.30;;;;;;4982831;28;20949;-80
2022/04/11 10:36:35;;;;;;;1.47;0.90;;;16.10;61.30;;;;;;4975035;28;20468;-80
2022/04/11 10:39:25;;;;;;;1.60;1.10;;;16.20;62.20;;;;;;4974334;28;20458;-81
2022/04/11 10:42:23;;;;;;;1.50;1.00;;;16.40;61.20;;;;;;4965950;28;20478;-79
2022/04/11 10:44:53;;;;;;;1.50;0.90;;;16.50;61.50;;;;;;4913783;29;20464;-79
2022/04/11 10:47:29;;;;;;;1.50;0.90;;;16.40;60.20;;;;;;4957540;28;20754;-80
2022/04/11 10:50:25;;;;;;;1.47;0.90;;;16.40;60.40;;;;;;4974883;28;20564;-80
2022/04/11 10:52:55;;;;;;;1.50;0.90;;;16.30;60.60;;;;;;4977986;28;20544;-80
2022/04/11 10:55:23;;;;;;;1.47;0.90;;;16.50;61.50;;;;;;4974610;28;20465;-80
2022/04/11 10:57:51;;;;;;;1.50;1.00;;;16.60;61.20;;;;;;4962732;28;20492;-79
2022/04/11 11:00:20;;;;;;;1.50;0.90;;;16.60;60.40;;;;;;4973494;28;20486;-80
2022/04/11 11:03:09;;;;;;;1.50;1.10;;;16.60;61.00;;;;;;4970748;28;20561;-80
2022/04/11 11:05:39;;;;;;;1.43;0.90;;;16.70;61.20;;;;;;4974315;28;20631;-80
2022/04/11 11:08:27;;;;;;;1.60;1.10;;;16.80;61.00;;;;;;4968296;28;20462;-80
2022/04/11 11:10:56;;;;;;;1.47;0.90;;;16.80;60.80;;;;;;4966097;28;20919;-80
2022/04/11 11:13:28;;;;;;;1.47;0.90;;;16.90;60.60;;;;;;4969052;28;20959;-80
2022/04/11 11:15:55;;;;;;;1.47;1.00;;;17.00;60.20;;;;;;4964144;28;20549;-80
2022/04/11 11:18:22;;;;;;;1.50;1.00;;;17.30;61.30;;;;;;4973776;28;20462;-80
2022/04/11 11:20:51;;;;;;;1.43;0.90;;;17.30;60.20;;;;;;4970209;28;20590;-80
2022/04/11 11:23:25;;;;;;;1.50;1.00;;;17.40;60.20;;;;;;4972784;28;20469;-80
2022/04/11 11:25:55;;;;;;;1.43;0.90;;;17.30;59.20;;;;;;4966661;28;20540;-80
2022/04/11 11:28:22;;;;;;;1.47;0.90;;;17.30;60.00;;;;;;4962752;28;20975;-80
2022/04/11 11:30:49;;;;;;;1.50;0.90;;;17.30;59.00;;;;;;4971907;28;20512;-80
2022/04/11 11:33:18;;;;;;;1.47;0.90;;;17.30;58.40;;;;;;4974049;28;20970;-81
2022/04/11 11:35:51;;;;;;;1.50;1.00;;;17.30;58.70;;;;;;4974912;28;20474;-80
2022/04/11 11:38:22;;;;;;;1.50;1.20;;;17.30;59.70;;;;;;4972391;28;20473;-80
2022/04/11 11:40:55;;;;;;;1.43;0.90;;;17.30;59.00;;;;;;4969242;28;20482;-80
2022/04/11 11:43:22;;;;;;;1.50;1.20;;;17.30;58.80;;;;;;4957502;28;20466;-80
2022/04/11 11:45:49;;;;;;;1.47;0.90;;;17.40;58.60;;;;;;4965911;28;20734;-80
2022/04/11 11:48:24;;;;;;;1.50;0.97;;;17.50;58.80;;;;;;4974924;28;20477;-80
2022/04/11 11:50:52;;;;;;;1.47;0.90;;;17.50;58.60;;;;;;4969044;28;20645;-81
2022/04/11 11:53:19;;;;;;;1.43;0.90;;;17.50;57.70;;;;;;4970065;28;20485;-80
2022/04/11 11:55:55;;;;;;;1.50;1.30;;;17.50;56.90;;;;;;4973135;28;20891;-80
2022/04/11 11:58:22;;;;;;;1.40;0.93;;;17.50;57.60;;;;;;4973663;28;20476;-80
2022/04/11 12:00:50;;;;;;;1.50;0.90;;;17.70;57.30;;;;;;4962176;28;20858;-80
2022/04/11 12:06:07;;;;;;;2.47;1.73;;;17.70;56.10;;;;;;4908886;28;20453;-80
2022/04/11 12:08:34;;;;;;;1.50;1.00;;;17.90;56.10;;;;;;4967077;28;20538;-80
2022/04/11 12:11:02;;;;;;;1.50;1.00;;;18.10;56.30;;;;;;4968846;28;20884;-80
2022/04/11 12:13:30;;;;;;;1.47;0.90;;;18.10;54.80;;;;;;4965747;28;20466;-80
2022/04/11 12:16:08;;;;;;;1.70;1.37;;;17.90;54.70;;;;;;4966080;28;20482;-80
2022/04/11 12:18:49;;;;;;;1.47;0.90;;;17.70;55.10;;;;;;4970125;28;20465;-80
2022/04/11 12:21:16;;;;;;;1.40;0.90;;;17.40;55.10;;;;;;4974447;28;20485;-80
2022/04/11 12:23:47;;;;;;;1.43;0.90;;;17.40;54.60;;;;;;4976509;28;20470;-80
2022/04/11 12:26:25;;;;;;;1.43;0.90;;;17.50;55.40;;;;;;4972867;28;20462;-80
2022/04/11 12:28:52;;;;;;;1.47;1.00;;;17.60;55.50;;;;;;4964993;28;20469;-80
2022/04/11 12:31:19;;;;;;;1.50;0.90;;;17.60;56.00;;;;;;4965180;28;20500;-80
2022/04/11 12:33:49;;;;;;;1.43;0.90;;;17.70;54.80;;;;;;4976928;28;20473;-80
2022/04/11 12:36:17;;;;;;;1.50;0.90;;;17.70;54.70;;;;;;4967340;28;20569;-80
2022/04/11 12:38:49;;;;;;;1.50;0.90;;;17.80;55.30;;;;;;4971250;28;20466;-80
2022/04/11 12:41:43;;;;;;;1.50;0.90;;;17.90;55.40;;;;;;4968939;28;20857;-82
2022/04/11 12:44:15;;;;;;;1.40;0.90;;;18.00;54.00;;;;;;4970248;28;20464;-80
2022/04/11 12:46:43;;;;;;;1.43;0.90;;;18.00;54.20;;;;;;4970219;28;20455;-81
2022/04/11 12:49:12;;;;;;;1.47;0.90;;;17.90;54.40;;;;;;4971322;28;20835;-80
2022/04/11 12:51:39;;;;;;;1.50;0.90;;;17.90;54.50;;;;;;4973413;28;20485;-80
2022/04/11 12:54:11;;;;;;;1.43;0.90;;;17.80;54.40;;;;;;4974740;28;20572;-80
2022/04/11 12:56:44;;;;;;;1.40;0.90;;;17.90;54.80;;;;;;4974436;28;21021;-80
2022/04/11 12:59:12;;;;;;;1.40;0.90;;;18.10;54.50;;;;;;4967991;28;20466;-79
2022/04/11 13:02:07;;;;;;;1.50;1.23;;;18.20;55.00;;;;;;4965146;28;20515;-80